ADDS METAR Data INFO
IDs: Format: Raw Decoded Include TAF

Data at: 1107 UTC 17 Jul 2018

KDUA 171055Z AUTO 19003KT CLR 23/20 A3000 RMK AO2 PWINO
KDUA 171035Z AUTO 00000KT CLR 23/20 A2999 RMK AO2 PWINO
KDUA 171015Z AUTO 00000KT CLR 23/20 A2999 RMK AO2 PWINO
KDUA 170955Z AUTO 00000KT CLR 24/20 A2999 RMK AO2 PWINO
KDUA 170935Z AUTO 00000KT CLR 24/20 A2999 RMK AO2 PWINO
KDUA 170915Z AUTO 00000KT CLR 25/20 A2998 RMK AO2 PWINO
KDUA 170855Z AUTO 00000KT CLR 25/20 A2998 RMK AO2 PWINO
KDUA 170835Z AUTO 00000KT CLR 25/20 A2998 RMK AO2 PWINO
KDUA 170815Z AUTO 14003KT CLR 25/20 A2999 RMK AO2 PWINO
KDUA 170755Z AUTO 00000KT CLR 25/20 A2999 RMK AO2 PWINO
KDUA 170735Z AUTO 00000KT CLR 25/21 A2999 RMK AO2 PWINO
KDUA 170715Z AUTO 10004KT CLR 26/21 A2999 RMK AO2 PWINO
KDUA 170655Z AUTO 11004KT CLR 26/21 A2999 RMK AO2 PWINO
KDUA 170635Z AUTO 11004KT CLR 26/21 A2999 RMK AO2 PWINO
KDUA 170615Z AUTO 11004KT CLR 26/21 A2999 RMK AO2 PWINO
KDUA 170555Z AUTO 00000KT CLR 26/20 A2999 RMK AO2 PWINO
KDUA 170535Z AUTO 15004KT CLR 27/20 A2999 RMK AO2 PWINO
KDUA 170515Z AUTO 15003KT CLR 27/20 A3000 RMK AO2 PWINO
KDUA 170455Z AUTO 00000KT CLR 27/20 A3000 RMK AO2 PWINO
KDUA 170435Z AUTO 00000KT CLR 28/20 A3000 RMK AO2 PWINO
KDUA 170415Z AUTO 17004KT CLR 28/21 A2999 RMK AO2 PWINO
KDUA 170355Z AUTO 18005KT CLR 29/21 A2999 RMK AO2 PWINO
KDUA 170335Z AUTO 17005KT CLR 30/21 A2999 RMK AO2 PWINO
KDUA 170315Z AUTO 18004KT CLR 30/21 A2999 RMK AO2 PWINO
KDUA 170255Z AUTO 17005KT CLR 30/21 A2998 RMK AO2 PWINO
KDUA 170235Z AUTO 16004KT CLR 01/M06 A2997 RMK AO2 PWINO
KDUA 170215Z AUTO 17005KT CLR 25/13 A2997 RMK AO2 PWINO
KDUA 170155Z AUTO 16006KT CLR 32/20 A2996 RMK AO2 PWINO
KDUA 170135Z AUTO 15005KT CLR 26/10 A2996 RMK AO2 PWINO
KDUA 170115Z AUTO 16005KT CLR 34/20 A2995 RMK AO2 PWINO
KDUA 170055Z AUTO 16007KT CLR 36/20 A2994 RMK AO2 PWINO
KDUA 170035Z AUTO 16006KT CLR 36/18 A2994 RMK AO2 PWINO
KDUA 170015Z AUTO 19007KT CLR 37/18 A2994 RMK AO2 PWINO
KDUA 162355Z AUTO 19006KT CLR 37/18 A2994 RMK AO2 PWINO
KDUA 162335Z AUTO 19005KT SCT070 38/18 A2994 RMK AO2 PWINO
KDUA 162315Z AUTO 18008KT SCT070 38/18 A2994 RMK AO2 PWINO
KDUA 162255Z AUTO 17008KT SCT070 M28/M38 A2994 RMK AO2 PWINO
KDUA 162235Z AUTO 18005KT M38/ A2994 RMK AO2 PWINO
KDUA 162215Z AUTO 18005KT BKN070 BKN085 M33/M43 A2994 RMK AO2 PWINO
KDUA 162155Z AUTO 23003KT BKN070 BKN085 M21/M35 A2994 RMK AO2 PWINO
KDUA 162135Z AUTO 00000KT CLR M11/M25 A2995 RMK AO2 PWINO
KDUA 162115Z AUTO 20008KT SCT070 M08/M22 A2995 RMK AO2 PWINO
KDUA 162055Z AUTO 15008KT SCT070 M09/M23 A2996 RMK AO2 PWINO
KDUA 162035Z AUTO 00000KT SCT070 SCT085 18/01 A2997 RMK AO2 PWINO
KDUA 162015Z AUTO 22006KT SCT070 37/17 A2998 RMK AO2 PWINO
KDUA 161955Z AUTO 20004KT SCT070 SCT085 37/18 A2998 RMK AO2 PWINO
KDUA 161935Z AUTO 16005KT SCT085 37/18 A2999 RMK AO2 PWINO
KDUA 161915Z AUTO 00000KT SCT070 38/17 A3000 RMK AO2 PWINO
KDUA 161855Z AUTO 19005KT SCT060 37/18 A3001 RMK AO2 PWINO
KDUA 161835Z AUTO 16006KT SCT060 36/19 A3001 RMK AO2 PWINO
KDUA 161815Z AUTO 24007KT SCT060 36/19 A3002 RMK AO2 PWINO
KDUA 161755Z AUTO 00000KT CLR M10/M22 A3002 RMK AO2 PWINO
KDUA 161735Z AUTO 23007KT M37/ A3002 RMK AO2 PWINO
KDUA 161715Z AUTO 23005KT M38/ A3003 RMK AO2 PWINO
KDUA 161655Z AUTO 27006KT A3004 RMK AO2 PWINO
KDUA 161635Z AUTO 25005KT A3004 RMK AO2 PWINO
KDUA 161615Z AUTO 23005KT CLR M38/M45 A3004 RMK AO2 PWINO
KDUA 161555Z AUTO 24007KT CLR M38/M45 A3004 RMK AO2 PWINO
KDUA 161535Z AUTO 25008KT CLR M38/M44 A3004 RMK AO2 PWINO
KDUA 161515Z AUTO 25008KT CLR M37/M43 A3004 RMK AO2 PWINO
KDUA 161455Z AUTO 23009KT CLR M37/M43 A3004 RMK AO2 PWINO
KDUA 161435Z AUTO 23008KT CLR M37/M43 A3004 RMK AO2 PWINO
KDUA 161415Z AUTO 23007KT CLR M38/M42 A3004 RMK AO2 PWINO
KDUA 161355Z AUTO 22006KT CLR M38/M42 A3003 RMK AO2 PWINO
KDUA 161335Z AUTO 20008KT CLR M38/M42 A3002 RMK AO2 PWINO
KDUA 161315Z AUTO 20005KT A3002 RMK AO2 PWINO
KDUA 161255Z AUTO 19003KT CLR M38/M41 A3001 RMK AO2 PWINO
KDUA 161235Z AUTO 19004KT M38/M41 A3001 RMK AO2 PWINO
KDUA 161215Z AUTO 00000KT A3001 RMK AO2 PWINO
KDUA 161155Z AUTO 19003KT A3001 RMK AO2 PWINO
KDUA 161135Z AUTO 17003KT CLR 23/20 A3000 RMK AO2 PWINO
KDUA 161115Z AUTO 18004KT CLR 23/20 A3000 RMK AO2 PWINO
KDUA 161055Z AUTO 17003KT CLR 24/20 A3000 RMK AO2 PWINO
KDUA 161035Z AUTO 19003KT CLR 24/20 A3000 RMK AO2 PWINO
KDUA 161015Z AUTO 19003KT CLR 24/20 A2999 RMK AO2 PWINO
KDUA 160955Z AUTO 17004KT CLR 25/20 A2999 RMK AO2 PWINO
KDUA 160935Z AUTO 18003KT CLR 25/20 A2999 RMK AO2 PWINO
KDUA 160915Z AUTO 20003KT CLR 25/20 A2998 RMK AO2 PWINO
KDUA 160855Z AUTO 18004KT CLR 25/20 A2998 RMK AO2 PWINO
KDUA 160835Z AUTO 18004KT CLR 25/20 A2998 RMK AO2 PWINO
KDUA 160815Z AUTO 18004KT CLR 25/20 A2998 RMK AO2 PWINO
KDUA 160755Z AUTO 19005KT CLR 25/20 A2998 RMK AO2 PWINO
KDUA 160735Z AUTO 17004KT CLR 25/20 A2999 RMK AO2 PWINO
KDUA 160715Z AUTO 16004KT CLR 25/20 A2999 RMK AO2 PWINO
KDUA 160655Z AUTO 16003KT CLR 26/20 A2999 RMK AO2 PWINO
KDUA 160635Z AUTO 17003KT CLR 26/20 A2999 RMK AO2 PWINO
KDUA 160615Z AUTO 17004KT CLR 26/20 A2999 RMK AO2 PWINO
KDUA 160555Z AUTO 19004KT CLR 26/20 A3000 RMK AO2 PWINO
KDUA 160535Z AUTO 17005KT CLR 26/20 A2999 RMK AO2 PWINO
KDUA 160515Z AUTO 17005KT CLR 27/21 A2999 RMK AO2 PWINO
KDUA 160455Z AUTO 17006KT CLR 27/21 A2999 RMK AO2 PWINO
KDUA 160435Z AUTO 17005KT CLR 27/21 A2999 RMK AO2 PWINO
KDUA 160415Z AUTO 16005KT CLR 28/21 A2998 RMK AO2 PWINO
KDUA 160355Z AUTO 16005KT CLR 27/20 A2998 RMK AO2 PWINO
KDUA 160335Z AUTO 16005KT CLR 28/21 A2998 RMK AO2 PWINO
KDUA 160315Z AUTO 16004KT CLR 28/20 A2998 RMK AO2 PWINO
KDUA 160255Z AUTO 16004KT CLR 29/20 A2997 RMK AO2 PWINO
KDUA 160235Z AUTO 14004KT CLR 30/20 A2996 RMK AO2 PWINO
KDUA 160215Z AUTO 15004KT CLR 30/19 A2995 RMK AO2 PWINO
KDUA 160155Z AUTO 17006KT CLR 31/19 A2995 RMK AO2 PWINO
KDUA 160135Z AUTO 17005KT CLR 32/20 A2994 RMK AO2 PWINO
KDUA 160115Z AUTO 17006KT CLR 33/18 A2994 RMK AO2 PWINO
KDUA 160055Z AUTO 17005KT CLR 35/18 A2993 RMK AO2 PWINO
KDUA 160035Z AUTO 16007KT SCT070 36/18 A2993 RMK AO2 PWINO
KDUA 160015Z AUTO 17008KT SCT070 36/18 A2992 RMK AO2 PWINO
KDUA 152355Z AUTO 17008KT SCT070 30/12 A2991 RMK AO2 PWINO
KDUA 152335Z AUTO 19011KT CLR 33/15 A2991 RMK AO2 PWINO
KDUA 152315Z AUTO 16010KT SCT070 36/17 A2991 RMK AO2 PWINO